In Rescue
 
Open Full Screen Window  High Contrast Mode
Wind Gusting 00 knots
07
July 13, 2020 9:29 PM CDT
Weather Information
Wind Direction
  180 °
Wind Speed
  07 kt (8 mph)
Wind Gust
  00 kt (0 mph)
Altimeter
29.83 in
Visibility
10 SM
Temperature
26° C
79° F
Dewpoint
19° C
66° F
Humidity
65%
1hr Rain Fall
00.00 in.
24hr Rain Fall
00.00 in.
Sky Condition
Broken @ 6,500 ft
Broken @ 4,800 ft
VFR

METAR KMJQ 140229Z AUTO 18007KT 10SM BKN048 BKN065 26/19 A2983 RMK AO2 PWINO

FAA Disclaimer: The data displayed is for advisory purposes only and is not to be used for flight planning or operations.